sensor_id;sensor_type;location;lat;lon;timestamp;temperature;humidity
34279;DHT22;20538;51.528;9.942;2024-01-30T00:02:22;2.40;99.90
34279;DHT22;20538;51.528;9.942;2024-01-30T00:04:48;2.50;99.90
34279;DHT22;20538;51.528;9.942;2024-01-30T00:07:13;2.40;99.90
34279;DHT22;20538;51.528;9.942;2024-01-30T00:09:39;2.40;99.90
34279;DHT22;20538;51.528;9.942;2024-01-30T00:12:08;2.40;99.90
34279;DHT22;20538;51.528;9.942;2024-01-30T00:14:33;2.40;99.90
34279;DHT22;20538;51.528;9.942;2024-01-30T00:16:59;2.40;99.90
34279;DHT22;20538;51.528;9.942;2024-01-30T00:19:24;2.30;99.90
34279;DHT22;20538;51.528;9.942;2024-01-30T00:21:50;2.30;99.90
34279;DHT22;20538;51.528;9.942;2024-01-30T00:24:15;2.30;99.90
34279;DHT22;20538;51.528;9.942;2024-01-30T00:26:41;2.30;99.90
34279;DHT22;20538;51.528;9.942;2024-01-30T00:29:07;2.30;99.90
34279;DHT22;20538;51.528;9.942;2024-01-30T00:31:32;2.20;99.90
34279;DHT22;20538;51.528;9.942;2024-01-30T00:33:58;2.20;99.90
34279;DHT22;20538;51.528;9.942;2024-01-30T00:36:23;2.20;99.90
34279;DHT22;20538;51.528;9.942;2024-01-30T00:38:49;2.20;99.90
34279;DHT22;20538;51.528;9.942;2024-01-30T00:41:17;2.20;99.90
34279;DHT22;20538;51.528;9.942;2024-01-30T00:43:43;2.20;99.90
34279;DHT22;20538;51.528;9.942;2024-01-30T00:46:08;2.20;99.90
34279;DHT22;20538;51.528;9.942;2024-01-30T00:48:34;2.20;99.90
34279;DHT22;20538;51.528;9.942;2024-01-30T00:51:00;2.20;99.90
34279;DHT22;20538;51.528;9.942;2024-01-30T00:53:26;2.10;99.90
34279;DHT22;20538;51.528;9.942;2024-01-30T00:55:51;2.20;99.90
34279;DHT22;20538;51.528;9.942;2024-01-30T00:58:17;2.20;99.90
34279;DHT22;20538;51.528;9.942;2024-01-30T01:00:44;2.10;99.90
34279;DHT22;20538;51.528;9.942;2024-01-30T01:03:10;2.20;99.90
34279;DHT22;20538;51.528;9.942;2024-01-30T01:05:36;2.20;99.90
34279;DHT22;20538;51.528;9.942;2024-01-30T01:08:01;2.10;99.90
34279;DHT22;20538;51.528;9.942;2024-01-30T01:10:27;2.00;99.90
34279;DHT22;20538;51.528;9.942;2024-01-30T01:12:53;2.00;99.90
34279;DHT22;20538;51.528;9.942;2024-01-30T01:15:19;2.00;99.90
34279;DHT22;20538;51.528;9.942;2024-01-30T01:17:44;2.10;99.90
34279;DHT22;20538;51.528;9.942;2024-01-30T01:20:10;2.00;99.90
34279;DHT22;20538;51.528;9.942;2024-01-30T01:22:37;2.20;99.90
34279;DHT22;20538;51.528;9.942;2024-01-30T01:25:04;2.30;99.90
34279;DHT22;20538;51.528;9.942;2024-01-30T01:27:32;2.30;99.90
34279;DHT22;20538;51.528;9.942;2024-01-30T01:29:59;2.20;99.90
34279;DHT22;20538;51.528;9.942;2024-01-30T01:32:25;2.20;99.90
34279;DHT22;20538;51.528;9.942;2024-01-30T01:34:51;2.10;99.90
34279;DHT22;20538;51.528;9.942;2024-01-30T01:37:17;2.10;99.90
34279;DHT22;20538;51.528;9.942;2024-01-30T01:39:42;2.20;99.90
34279;DHT22;20538;51.528;9.942;2024-01-30T01:42:08;2.10;99.90
34279;DHT22;20538;51.528;9.942;2024-01-30T01:44:33;2.10;99.90
34279;DHT22;20538;51.528;9.942;2024-01-30T01:46:59;2.10;99.90
34279;DHT22;20538;51.528;9.942;2024-01-30T01:49:25;2.10;99.90
34279;DHT22;20538;51.528;9.942;2024-01-30T01:51:54;2.00;99.90
34279;DHT22;20538;51.528;9.942;2024-01-30T01:54:22;2.00;99.90
34279;DHT22;20538;51.528;9.942;2024-01-30T01:56:49;2.00;99.90
34279;DHT22;20538;51.528;9.942;2024-01-30T01:59:16;2.00;99.90
34279;DHT22;20538;51.528;9.942;2024-01-30T02:01:43;2.00;99.90
34279;DHT22;20538;51.528;9.942;2024-01-30T02:04:09;2.00;99.90
34279;DHT22;20538;51.528;9.942;2024-01-30T02:06:35;2.00;99.90
34279;DHT22;20538;51.528;9.942;2024-01-30T02:09:01;2.00;99.90
34279;DHT22;20538;51.528;9.942;2024-01-30T02:11:27;2.10;99.90
34279;DHT22;20538;51.528;9.942;2024-01-30T02:13:53;2.20;99.90
34279;DHT22;20538;51.528;9.942;2024-01-30T02:16:19;2.20;99.90
34279;DHT22;20538;51.528;9.942;2024-01-30T02:18:45;2.20;99.90
34279;DHT22;20538;51.528;9.942;2024-01-30T02:21:17;2.10;99.90
34279;DHT22;20538;51.528;9.942;2024-01-30T02:23:44;2.10;99.90
34279;DHT22;20538;51.528;9.942;2024-01-30T02:26:11;2.00;99.90
34279;DHT22;20538;51.528;9.942;2024-01-30T02:28:38;1.90;99.90
34279;DHT22;20538;51.528;9.942;2024-01-30T02:31:04;1.90;99.90
34279;DHT22;20538;51.528;9.942;2024-01-30T02:33:30;1.90;99.90
34279;DHT22;20538;51.528;9.942;2024-01-30T02:35:55;1.90;99.90
34279;DHT22;20538;51.528;9.942;2024-01-30T02:38:21;1.90;99.90
34279;DHT22;20538;51.528;9.942;2024-01-30T02:40:47;1.90;99.90
34279;DHT22;20538;51.528;9.942;2024-01-30T02:43:12;1.90;99.90
34279;DHT22;20538;51.528;9.942;2024-01-30T02:45:38;1.80;99.90
34279;DHT22;20538;51.528;9.942;2024-01-30T02:48:04;1.90;99.90
34279;DHT22;20538;51.528;9.942;2024-01-30T02:50:29;1.90;99.90
34279;DHT22;20538;51.528;9.942;2024-01-30T02:52:55;1.80;99.90
34279;DHT22;20538;51.528;9.942;2024-01-30T02:55:21;1.80;99.90
34279;DHT22;20538;51.528;9.942;2024-01-30T02:57:46;1.80;99.90
34279;DHT22;20538;51.528;9.942;2024-01-30T03:00:12;1.80;99.90
34279;DHT22;20538;51.528;9.942;2024-01-30T03:02:38;1.80;99.90
34279;DHT22;20538;51.528;9.942;2024-01-30T03:05:05;1.80;99.90
34279;DHT22;20538;51.528;9.942;2024-01-30T03:07:31;1.80;99.90
34279;DHT22;20538;51.528;9.942;2024-01-30T03:09:57;1.80;99.90
34279;DHT22;20538;51.528;9.942;2024-01-30T03:12:22;1.70;99.90
34279;DHT22;20538;51.528;9.942;2024-01-30T03:14:48;1.80;99.90
34279;DHT22;20538;51.528;9.942;2024-01-30T03:17:14;1.80;99.90
34279;DHT22;20538;51.528;9.942;2024-01-30T03:19:40;1.70;99.90
34279;DHT22;20538;51.528;9.942;2024-01-30T03:22:06;1.70;99.90
34279;DHT22;20538;51.528;9.942;2024-01-30T03:24:31;1.70;99.90
34279;DHT22;20538;51.528;9.942;2024-01-30T03:26:57;1.70;99.90
34279;DHT22;20538;51.528;9.942;2024-01-30T03:29:23;1.60;99.90
34279;DHT22;20538;51.528;9.942;2024-01-30T03:31:48;1.70;99.90
34279;DHT22;20538;51.528;9.942;2024-01-30T03:34:14;1.70;99.90
34279;DHT22;20538;51.528;9.942;2024-01-30T03:36:39;1.70;99.90
34279;DHT22;20538;51.528;9.942;2024-01-30T03:39:05;1.70;99.90
34279;DHT22;20538;51.528;9.942;2024-01-30T03:41:31;1.70;99.90
34279;DHT22;20538;51.528;9.942;2024-01-30T03:43:57;1.70;99.90
34279;DHT22;20538;51.528;9.942;2024-01-30T03:46:23;1.70;99.90
34279;DHT22;20538;51.528;9.942;2024-01-30T03:48:48;1.70;99.90
34279;DHT22;20538;51.528;9.942;2024-01-30T03:51:16;1.70;99.90
34279;DHT22;20538;51.528;9.942;2024-01-30T03:53:43;1.60;99.90
34279;DHT22;20538;51.528;9.942;2024-01-30T03:56:09;1.60;99.90
34279;DHT22;20538;51.528;9.942;2024-01-30T03:58:35;1.70;99.90
34279;DHT22;20538;51.528;9.942;2024-01-30T04:01:00;1.70;99.90
34279;DHT22;20538;51.528;9.942;2024-01-30T04:03:26;1.70;99.90
34279;DHT22;20538;51.528;9.942;2024-01-30T04:05:52;1.60;99.90
34279;DHT22;20538;51.528;9.942;2024-01-30T04:08:18;1.60;99.90
34279;DHT22;20538;51.528;9.942;2024-01-30T04:10:44;1.60;99.90
34279;DHT22;20538;51.528;9.942;2024-01-30T04:13:09;1.60;99.90
34279;DHT22;20538;51.528;9.942;2024-01-30T04:15:35;1.60;99.90
34279;DHT22;20538;51.528;9.942;2024-01-30T04:18:01;1.60;99.90
34279;DHT22;20538;51.528;9.942;2024-01-30T04:20:26;1.60;99.90
34279;DHT22;20538;51.528;9.942;2024-01-30T04:22:52;1.60;99.90
34279;DHT22;20538;51.528;9.942;2024-01-30T04:25:18;1.60;99.90
34279;DHT22;20538;51.528;9.942;2024-01-30T04:27:43;1.60;99.90
34279;DHT22;20538;51.528;9.942;2024-01-30T04:30:09;1.60;99.90
34279;DHT22;20538;51.528;9.942;2024-01-30T04:32:35;1.70;99.90
34279;DHT22;20538;51.528;9.942;2024-01-30T04:35:01;1.60;99.90
34279;DHT22;20538;51.528;9.942;2024-01-30T04:37:27;1.70;99.90
34279;DHT22;20538;51.528;9.942;2024-01-30T04:39:53;1.70;99.90
34279;DHT22;20538;51.528;9.942;2024-01-30T04:42:18;1.70;99.90
34279;DHT22;20538;51.528;9.942;2024-01-30T04:44:44;1.70;99.90
34279;DHT22;20538;51.528;9.942;2024-01-30T04:47:09;1.80;99.90
34279;DHT22;20538;51.528;9.942;2024-01-30T04:49:38;1.70;99.90
34279;DHT22;20538;51.528;9.942;2024-01-30T04:52:05;1.80;99.90
34279;DHT22;20538;51.528;9.942;2024-01-30T04:54:31;1.70;99.90
34279;DHT22;20538;51.528;9.942;2024-01-30T04:56:57;1.80;99.90
34279;DHT22;20538;51.528;9.942;2024-01-30T04:59:22;1.80;99.90
34279;DHT22;20538;51.528;9.942;2024-01-30T05:01:48;1.80;99.90
34279;DHT22;20538;51.528;9.942;2024-01-30T05:04:16;1.80;99.90
34279;DHT22;20538;51.528;9.942;2024-01-30T05:06:42;1.90;99.90
34279;DHT22;20538;51.528;9.942;2024-01-30T05:09:08;1.90;99.90
34279;DHT22;20538;51.528;9.942;2024-01-30T05:11:41;1.90;99.90
34279;DHT22;20538;51.528;9.942;2024-01-30T05:14:07;1.90;99.90
34279;DHT22;20538;51.528;9.942;2024-01-30T05:16:34;1.90;99.90
34279;DHT22;20538;51.528;9.942;2024-01-30T05:19:00;1.90;99.90
34279;DHT22;20538;51.528;9.942;2024-01-30T05:21:26;1.90;99.90
34279;DHT22;20538;51.528;9.942;2024-01-30T05:23:51;1.90;99.90
34279;DHT22;20538;51.528;9.942;2024-01-30T05:26:17;1.90;99.90
34279;DHT22;20538;51.528;9.942;2024-01-30T05:28:43;1.90;99.90
34279;DHT22;20538;51.528;9.942;2024-01-30T05:31:10;1.90;99.90
34279;DHT22;20538;51.528;9.942;2024-01-30T05:33:36;1.90;99.90
34279;DHT22;20538;51.528;9.942;2024-01-30T05:36:02;1.90;99.90
34279;DHT22;20538;51.528;9.942;2024-01-30T05:38:29;1.90;99.90
34279;DHT22;20538;51.528;9.942;2024-01-30T05:40:55;1.90;99.90
34279;DHT22;20538;51.528;9.942;2024-01-30T05:43:23;2.00;99.90
34279;DHT22;20538;51.528;9.942;2024-01-30T05:45:49;2.00;99.90
34279;DHT22;20538;51.528;9.942;2024-01-30T05:48:14;2.10;99.90
34279;DHT22;20538;51.528;9.942;2024-01-30T05:50:40;2.10;99.90
34279;DHT22;20538;51.528;9.942;2024-01-30T05:53:05;2.20;99.90
34279;DHT22;20538;51.528;9.942;2024-01-30T05:55:31;2.20;99.90
34279;DHT22;20538;51.528;9.942;2024-01-30T05:57:57;2.20;99.90
34279;DHT22;20538;51.528;9.942;2024-01-30T06:00:23;2.30;99.90
34279;DHT22;20538;51.528;9.942;2024-01-30T06:02:48;2.30;99.90
34279;DHT22;20538;51.528;9.942;2024-01-30T06:05:14;2.30;99.90
34279;DHT22;20538;51.528;9.942;2024-01-30T06:07:40;2.20;99.90
34279;DHT22;20538;51.528;9.942;2024-01-30T06:10:08;2.30;99.90
34279;DHT22;20538;51.528;9.942;2024-01-30T06:12:37;2.30;99.90
34279;DHT22;20538;51.528;9.942;2024-01-30T06:15:03;2.20;99.90
34279;DHT22;20538;51.528;9.942;2024-01-30T06:17:29;2.30;99.90
34279;DHT22;20538;51.528;9.942;2024-01-30T06:19:55;2.30;99.90
34279;DHT22;20538;51.528;9.942;2024-01-30T06:22:20;2.20;99.90
34279;DHT22;20538;51.528;9.942;2024-01-30T06:24:46;2.30;99.90
34279;DHT22;20538;51.528;9.942;2024-01-30T06:27:14;2.30;99.90
34279;DHT22;20538;51.528;9.942;2024-01-30T06:29:40;2.30;99.90
34279;DHT22;20538;51.528;9.942;2024-01-30T06:32:06;2.20;99.90
34279;DHT22;20538;51.528;9.942;2024-01-30T06:34:32;2.20;99.90
34279;DHT22;20538;51.528;9.942;2024-01-30T06:36:57;2.30;99.90
34279;DHT22;20538;51.528;9.942;2024-01-30T06:39:23;2.30;99.90
34279;DHT22;20538;51.528;9.942;2024-01-30T06:41:49;2.30;99.90
34279;DHT22;20538;51.528;9.942;2024-01-30T06:44:14;2.30;99.90
34279;DHT22;20538;51.528;9.942;2024-01-30T06:46:40;2.30;99.90
34279;DHT22;20538;51.528;9.942;2024-01-30T06:49:06;2.30;99.90
34279;DHT22;20538;51.528;9.942;2024-01-30T06:51:31;2.30;99.90
34279;DHT22;20538;51.528;9.942;2024-01-30T06:53:57;2.30;99.90
34279;DHT22;20538;51.528;9.942;2024-01-30T06:56:23;2.30;99.90
34279;DHT22;20538;51.528;9.942;2024-01-30T06:58:49;2.30;99.90
34279;DHT22;20538;51.528;9.942;2024-01-30T07:01:15;2.30;99.90
34279;DHT22;20538;51.528;9.942;2024-01-30T07:03:41;2.20;99.90
34279;DHT22;20538;51.528;9.942;2024-01-30T07:06:07;2.20;99.90
34279;DHT22;20538;51.528;9.942;2024-01-30T07:08:33;2.20;99.90
34279;DHT22;20538;51.528;9.942;2024-01-30T07:10:59;2.20;99.90
34279;DHT22;20538;51.528;9.942;2024-01-30T07:13:24;2.30;99.90
34279;DHT22;20538;51.528;9.942;2024-01-30T07:15:50;2.20;99.90
34279;DHT22;20538;51.528;9.942;2024-01-30T07:18:16;2.30;99.90
34279;DHT22;20538;51.528;9.942;2024-01-30T07:20:41;2.30;99.90
34279;DHT22;20538;51.528;9.942;2024-01-30T07:23:12;2.30;99.90
34279;DHT22;20538;51.528;9.942;2024-01-30T07:25:40;2.30;99.90
34279;DHT22;20538;51.528;9.942;2024-01-30T07:28:07;2.30;99.90
34279;DHT22;20538;51.528;9.942;2024-01-30T07:30:35;2.30;99.90
34279;DHT22;20538;51.528;9.942;2024-01-30T07:33:01;2.40;99.90
34279;DHT22;20538;51.528;9.942;2024-01-30T07:35:26;2.40;99.90
34279;DHT22;20538;51.528;9.942;2024-01-30T07:37:52;2.50;99.90
34279;DHT22;20538;51.528;9.942;2024-01-30T07:40:17;2.50;99.90
34279;DHT22;20538;51.528;9.942;2024-01-30T07:42:43;2.50;99.90
34279;DHT22;20538;51.528;9.942;2024-01-30T07:45:09;2.60;99.90
34279;DHT22;20538;51.528;9.942;2024-01-30T07:47:35;2.70;99.90
34279;DHT22;20538;51.528;9.942;2024-01-30T07:50:00;2.70;99.90
34279;DHT22;20538;51.528;9.942;2024-01-30T07:52:26;2.80;99.90
34279;DHT22;20538;51.528;9.942;2024-01-30T07:54:52;2.80;99.90
34279;DHT22;20538;51.528;9.942;2024-01-30T07:57:18;2.90;99.90
34279;DHT22;20538;51.528;9.942;2024-01-30T07:59:44;3.00;99.90
34279;DHT22;20538;51.528;9.942;2024-01-30T08:02:11;3.10;99.90
34279;DHT22;20538;51.528;9.942;2024-01-30T08:04:37;3.10;99.90
34279;DHT22;20538;51.528;9.942;2024-01-30T08:07:03;3.20;99.90
34279;DHT22;20538;51.528;9.942;2024-01-30T08:09:28;3.30;99.90
34279;DHT22;20538;51.528;9.942;2024-01-30T08:11:54;3.40;99.90
34279;DHT22;20538;51.528;9.942;2024-01-30T08:14:20;3.50;99.90
34279;DHT22;20538;51.528;9.942;2024-01-30T08:16:45;3.60;99.90
34279;DHT22;20538;51.528;9.942;2024-01-30T08:19:11;3.70;99.90
34279;DHT22;20538;51.528;9.942;2024-01-30T08:21:37;3.80;99.90
34279;DHT22;20538;51.528;9.942;2024-01-30T08:24:06;3.90;99.90
34279;DHT22;20538;51.528;9.942;2024-01-30T08:26:32;3.90;99.90
34279;DHT22;20538;51.528;9.942;2024-01-30T08:28:58;4.00;99.90
34279;DHT22;20538;51.528;9.942;2024-01-30T08:31:24;4.10;99.90
34279;DHT22;20538;51.528;9.942;2024-01-30T08:33:50;4.20;99.90
34279;DHT22;20538;51.528;9.942;2024-01-30T08:36:20;4.30;99.90
34279;DHT22;20538;51.528;9.942;2024-01-30T08:38:45;4.30;99.90
34279;DHT22;20538;51.528;9.942;2024-01-30T08:41:11;4.40;99.90
34279;DHT22;20538;51.528;9.942;2024-01-30T08:43:37;4.50;99.90
34279;DHT22;20538;51.528;9.942;2024-01-30T08:46:03;4.60;99.90
34279;DHT22;20538;51.528;9.942;2024-01-30T08:48:35;4.60;99.90
34279;DHT22;20538;51.528;9.942;2024-01-30T08:51:01;4.70;99.90
34279;DHT22;20538;51.528;9.942;2024-01-30T08:53:27;4.80;99.90
34279;DHT22;20538;51.528;9.942;2024-01-30T08:55:52;4.80;99.90
34279;DHT22;20538;51.528;9.942;2024-01-30T08:58:18;4.90;99.90
34279;DHT22;20538;51.528;9.942;2024-01-30T09:00:47;5.00;99.90
34279;DHT22;20538;51.528;9.942;2024-01-30T09:03:13;5.00;99.90
34279;DHT22;20538;51.528;9.942;2024-01-30T09:05:42;5.10;99.90
34279;DHT22;20538;51.528;9.942;2024-01-30T09:08:07;5.10;99.90
34279;DHT22;20538;51.528;9.942;2024-01-30T09:10:33;5.20;99.90
34279;DHT22;20538;51.528;9.942;2024-01-30T09:12:58;5.20;99.90
34279;DHT22;20538;51.528;9.942;2024-01-30T09:15:24;5.30;99.90
34279;DHT22;20538;51.528;9.942;2024-01-30T09:17:50;5.30;99.90
34279;DHT22;20538;51.528;9.942;2024-01-30T09:20:19;5.40;99.90
34279;DHT22;20538;51.528;9.942;2024-01-30T09:22:45;5.50;99.90
34279;DHT22;20538;51.528;9.942;2024-01-30T09:25:11;5.60;99.90
34279;DHT22;20538;51.528;9.942;2024-01-30T09:27:37;5.70;99.90
34279;DHT22;20538;51.528;9.942;2024-01-30T09:30:02;5.70;99.90
34279;DHT22;20538;51.528;9.942;2024-01-30T09:32:28;5.90;99.90
34279;DHT22;20538;51.528;9.942;2024-01-30T09:34:54;6.00;99.90
34279;DHT22;20538;51.528;9.942;2024-01-30T09:37:19;6.10;99.90
34279;DHT22;20538;51.528;9.942;2024-01-30T09:39:46;6.20;99.90
34279;DHT22;20538;51.528;9.942;2024-01-30T09:42:33;6.20;99.90
34279;DHT22;20538;51.528;9.942;2024-01-30T09:45:02;6.30;99.90
34279;DHT22;20538;51.528;9.942;2024-01-30T09:47:36;6.40;99.90
34279;DHT22;20538;51.528;9.942;2024-01-30T09:50:05;6.50;99.90
34279;DHT22;20538;51.528;9.942;2024-01-30T09:52:42;6.50;99.90
34279;DHT22;20538;51.528;9.942;2024-01-30T09:55:20;6.60;99.90
34279;DHT22;20538;51.528;9.942;2024-01-30T09:57:53;6.70;99.90
34279;DHT22;20538;51.528;9.942;2024-01-30T10:00:24;6.70;99.90
34279;DHT22;20538;51.528;9.942;2024-01-30T10:02:58;6.80;99.90
34279;DHT22;20538;51.528;9.942;2024-01-30T10:05:27;6.90;99.90
34279;DHT22;20538;51.528;9.942;2024-01-30T10:07:57;7.00;99.90
34279;DHT22;20538;51.528;9.942;2024-01-30T10:10:25;7.00;99.90
34279;DHT22;20538;51.528;9.942;2024-01-30T10:12:51;7.10;99.90
34279;DHT22;20538;51.528;9.942;2024-01-30T10:15:18;7.10;99.90
34279;DHT22;20538;51.528;9.942;2024-01-30T10:17:47;7.20;99.90
34279;DHT22;20538;51.528;9.942;2024-01-30T10:20:13;7.30;99.90
34279;DHT22;20538;51.528;9.942;2024-01-30T10:22:40;7.40;99.90
34279;DHT22;20538;51.528;9.942;2024-01-30T10:25:09;7.40;99.90
34279;DHT22;20538;51.528;9.942;2024-01-30T10:27:35;7.50;99.90
34279;DHT22;20538;51.528;9.942;2024-01-30T10:30:00;7.60;99.90
34279;DHT22;20538;51.528;9.942;2024-01-30T10:32:27;7.60;99.90
34279;DHT22;20538;51.528;9.942;2024-01-30T10:34:52;7.60;99.90
34279;DHT22;20538;51.528;9.942;2024-01-30T10:37:19;7.70;99.90
34279;DHT22;20538;51.528;9.942;2024-01-30T10:39:46;7.70;99.90
34279;DHT22;20538;51.528;9.942;2024-01-30T10:42:18;7.80;99.90
34279;DHT22;20538;51.528;9.942;2024-01-30T10:45:00;7.80;99.90
34279;DHT22;20538;51.528;9.942;2024-01-30T10:47:29;7.80;99.90
34279;DHT22;20538;51.528;9.942;2024-01-30T10:49:56;7.90;99.90
34279;DHT22;20538;51.528;9.942;2024-01-30T10:52:23;7.90;99.90
34279;DHT22;20538;51.528;9.942;2024-01-30T10:54:51;8.00;99.90
34279;DHT22;20538;51.528;9.942;2024-01-30T10:57:18;8.00;99.90
34279;DHT22;20538;51.528;9.942;2024-01-30T10:59:45;8.10;99.90
34279;DHT22;20538;51.528;9.942;2024-01-30T11:02:13;8.20;99.90
34279;DHT22;20538;51.528;9.942;2024-01-30T11:04:41;8.20;99.90
34279;DHT22;20538;51.528;9.942;2024-01-30T11:07:24;8.30;99.90
34279;DHT22;20538;51.528;9.942;2024-01-30T11:09:52;8.40;99.90
34279;DHT22;20538;51.528;9.942;2024-01-30T11:12:22;8.40;99.90
34279;DHT22;20538;51.528;9.942;2024-01-30T11:14:49;8.40;99.90
34279;DHT22;20538;51.528;9.942;2024-01-30T11:17:14;8.40;99.90
34279;DHT22;20538;51.528;9.942;2024-01-30T11:19:41;8.50;99.90
34279;DHT22;20538;51.528;9.942;2024-01-30T11:22:07;8.50;99.90
34279;DHT22;20538;51.528;9.942;2024-01-30T11:24:40;8.50;99.90
34279;DHT22;20538;51.528;9.942;2024-01-30T11:27:09;8.60;99.90
34279;DHT22;20538;51.528;9.942;2024-01-30T11:29:38;8.60;99.90
34279;DHT22;20538;51.528;9.942;2024-01-30T11:32:05;8.70;99.90
34279;DHT22;20538;51.528;9.942;2024-01-30T11:34:32;8.80;99.90
34279;DHT22;20538;51.528;9.942;2024-01-30T11:37:03;8.80;99.90
34279;DHT22;20538;51.528;9.942;2024-01-30T11:39:32;8.80;99.90
34279;DHT22;20538;51.528;9.942;2024-01-30T11:42:01;8.80;99.90
34279;DHT22;20538;51.528;9.942;2024-01-30T11:44:31;8.80;99.90
34279;DHT22;20538;51.528;9.942;2024-01-30T11:46:56;8.80;99.90
34279;DHT22;20538;51.528;9.942;2024-01-30T11:49:23;8.80;99.90
34279;DHT22;20538;51.528;9.942;2024-01-30T11:51:49;8.80;99.90
34279;DHT22;20538;51.528;9.942;2024-01-30T11:54:15;8.80;99.90
34279;DHT22;20538;51.528;9.942;2024-01-30T11:56:42;8.80;99.90
34279;DHT22;20538;51.528;9.942;2024-01-30T11:59:08;8.90;99.90
34279;DHT22;20538;51.528;9.942;2024-01-30T12:01:34;8.90;99.90
34279;DHT22;20538;51.528;9.942;2024-01-30T12:04:00;8.90;99.90
34279;DHT22;20538;51.528;9.942;2024-01-30T12:06:26;8.80;99.90
34279;DHT22;20538;51.528;9.942;2024-01-30T12:08:59;8.80;99.90
34279;DHT22;20538;51.528;9.942;2024-01-30T12:11:25;8.80;99.90
34279;DHT22;20538;51.528;9.942;2024-01-30T12:14:18;8.90;99.90
34279;DHT22;20538;51.528;9.942;2024-01-30T12:16:48;8.90;99.90
34279;DHT22;20538;51.528;9.942;2024-01-30T12:19:24;9.00;99.90
34279;DHT22;20538;51.528;9.942;2024-01-30T12:21:59;9.00;99.90
34279;DHT22;20538;51.528;9.942;2024-01-30T12:24:28;9.00;99.90
34279;DHT22;20538;51.528;9.942;2024-01-30T12:27:00;9.00;99.90
34279;DHT22;20538;51.528;9.942;2024-01-30T12:29:25;9.10;99.90
34279;DHT22;20538;51.528;9.942;2024-01-30T12:31:54;9.10;99.90
34279;DHT22;20538;51.528;9.942;2024-01-30T12:34:20;9.10;99.90
34279;DHT22;20538;51.528;9.942;2024-01-30T12:36:49;9.20;99.90
34279;DHT22;20538;51.528;9.942;2024-01-30T12:39:15;9.20;99.90
34279;DHT22;20538;51.528;9.942;2024-01-30T12:41:41;9.30;99.90
34279;DHT22;20538;51.528;9.942;2024-01-30T12:44:07;9.20;99.90
34279;DHT22;20538;51.528;9.942;2024-01-30T12:46:34;9.30;99.90
34279;DHT22;20538;51.528;9.942;2024-01-30T12:49:00;9.30;99.90
34279;DHT22;20538;51.528;9.942;2024-01-30T12:51:26;9.40;99.90
34279;DHT22;20538;51.528;9.942;2024-01-30T12:53:52;9.40;99.90
34279;DHT22;20538;51.528;9.942;2024-01-30T12:56:17;9.40;99.90
34279;DHT22;20538;51.528;9.942;2024-01-30T12:58:43;9.40;99.90
34279;DHT22;20538;51.528;9.942;2024-01-30T13:01:09;9.40;99.90
34279;DHT22;20538;51.528;9.942;2024-01-30T13:03:35;9.40;99.90
34279;DHT22;20538;51.528;9.942;2024-01-30T13:06:01;9.40;99.90
34279;DHT22;20538;51.528;9.942;2024-01-30T13:08:27;9.50;99.90
34279;DHT22;20538;51.528;9.942;2024-01-30T13:10:52;9.50;99.90
34279;DHT22;20538;51.528;9.942;2024-01-30T13:13:21;9.50;99.90
34279;DHT22;20538;51.528;9.942;2024-01-30T13:15:48;9.50;99.90
34279;DHT22;20538;51.528;9.942;2024-01-30T13:18:13;9.60;99.90
34279;DHT22;20538;51.528;9.942;2024-01-30T13:20:39;9.60;99.90
34279;DHT22;20538;51.528;9.942;2024-01-30T13:23:05;9.60;99.90
34279;DHT22;20538;51.528;9.942;2024-01-30T13:25:33;9.70;99.90
34279;DHT22;20538;51.528;9.942;2024-01-30T13:27:59;9.70;99.90
34279;DHT22;20538;51.528;9.942;2024-01-30T13:30:24;9.70;99.90
34279;DHT22;20538;51.528;9.942;2024-01-30T13:32:50;9.70;99.90
34279;DHT22;20538;51.528;9.942;2024-01-30T13:35:15;9.70;99.90
34279;DHT22;20538;51.528;9.942;2024-01-30T13:37:41;9.70;99.90
34279;DHT22;20538;51.528;9.942;2024-01-30T13:40:07;9.70;99.90
34279;DHT22;20538;51.528;9.942;2024-01-30T13:42:34;9.70;99.90
34279;DHT22;20538;51.528;9.942;2024-01-30T13:45:00;9.70;99.90
34279;DHT22;20538;51.528;9.942;2024-01-30T13:47:28;9.60;99.90
34279;DHT22;20538;51.528;9.942;2024-01-30T13:49:54;9.60;99.90
34279;DHT22;20538;51.528;9.942;2024-01-30T13:52:34;9.60;99.90
34279;DHT22;20538;51.528;9.942;2024-01-30T13:55:32;9.60;99.90
34279;DHT22;20538;51.528;9.942;2024-01-30T13:58:20;9.60;99.90
34279;DHT22;20538;51.528;9.942;2024-01-30T14:00:54;9.60;99.90
34279;DHT22;20538;51.528;9.942;2024-01-30T14:03:20;9.60;99.90
34279;DHT22;20538;51.528;9.942;2024-01-30T14:05:46;9.60;99.90
34279;DHT22;20538;51.528;9.942;2024-01-30T14:08:11;9.60;99.90
34279;DHT22;20538;51.528;9.942;2024-01-30T14:10:37;9.60;99.90
34279;DHT22;20538;51.528;9.942;2024-01-30T14:13:03;9.60;99.90
34279;DHT22;20538;51.528;9.942;2024-01-30T14:15:29;9.60;99.90
34279;DHT22;20538;51.528;9.942;2024-01-30T14:17:55;9.60;99.90
34279;DHT22;20538;51.528;9.942;2024-01-30T14:20:21;9.60;99.90
34279;DHT22;20538;51.528;9.942;2024-01-30T14:22:46;9.60;99.90
34279;DHT22;20538;51.528;9.942;2024-01-30T14:25:12;9.50;99.90
34279;DHT22;20538;51.528;9.942;2024-01-30T14:27:38;9.50;99.90
34279;DHT22;20538;51.528;9.942;2024-01-30T14:30:04;9.50;99.90
34279;DHT22;20538;51.528;9.942;2024-01-30T14:32:30;9.50;99.90
34279;DHT22;20538;51.528;9.942;2024-01-30T14:34:55;9.40;99.90
34279;DHT22;20538;51.528;9.942;2024-01-30T14:37:21;9.40;99.90
34279;DHT22;20538;51.528;9.942;2024-01-30T14:39:47;9.40;99.90
34279;DHT22;20538;51.528;9.942;2024-01-30T14:42:14;9.40;99.90
34279;DHT22;20538;51.528;9.942;2024-01-30T14:44:40;9.40;99.90
34279;DHT22;20538;51.528;9.942;2024-01-30T14:47:09;9.40;99.90
34279;DHT22;20538;51.528;9.942;2024-01-30T14:49:35;9.40;99.90
34279;DHT22;20538;51.528;9.942;2024-01-30T14:52:00;9.40;99.90
34279;DHT22;20538;51.528;9.942;2024-01-30T14:54:27;9.40;99.90
34279;DHT22;20538;51.528;9.942;2024-01-30T14:56:55;9.40;99.90
34279;DHT22;20538;51.528;9.942;2024-01-30T14:59:21;9.40;99.90
34279;DHT22;20538;51.528;9.942;2024-01-30T15:01:47;9.30;99.90
34279;DHT22;20538;51.528;9.942;2024-01-30T15:04:13;9.40;99.90
34279;DHT22;20538;51.528;9.942;2024-01-30T15:06:40;9.40;99.90
34279;DHT22;20538;51.528;9.942;2024-01-30T15:09:11;9.40;99.90
34279;DHT22;20538;51.528;9.942;2024-01-30T15:11:39;9.30;99.90
34279;DHT22;20538;51.528;9.942;2024-01-30T15:14:05;9.30;99.90
34279;DHT22;20538;51.528;9.942;2024-01-30T15:16:36;9.30;99.90
34279;DHT22;20538;51.528;9.942;2024-01-30T15:19:02;9.30;99.90
34279;DHT22;20538;51.528;9.942;2024-01-30T15:21:30;9.20;99.90
34279;DHT22;20538;51.528;9.942;2024-01-30T15:23:56;9.20;99.90
34279;DHT22;20538;51.528;9.942;2024-01-30T15:26:21;9.20;99.90
34279;DHT22;20538;51.528;9.942;2024-01-30T15:28:47;9.20;99.90
34279;DHT22;20538;51.528;9.942;2024-01-30T15:31:15;9.10;99.90
34279;DHT22;20538;51.528;9.942;2024-01-30T15:33:41;9.10;99.90
34279;DHT22;20538;51.528;9.942;2024-01-30T15:36:08;9.00;99.90
34279;DHT22;20538;51.528;9.942;2024-01-30T15:38:34;9.00;99.90
34279;DHT22;20538;51.528;9.942;2024-01-30T15:41:05;9.00;99.90
34279;DHT22;20538;51.528;9.942;2024-01-30T15:43:31;8.90;99.90